Time;durP1;ratioP1;P1;durP2;ratioP2;P2;SDS_P1;SDS_P2;PMS_P1;PMS_P2;Temp;Humidity;BMP_temperature;BMP_pressure;BME280_temperature;BME280_humidity;BME280_pressure;Samples;Min_cycle;Max_cycle;Signal;HPM_P1;HPM_P2
2023/05/28 00:00:18;;;;;;;;;;;;;;;;;;5093039;28;19924;-64
2023/05/28 00:02:45;;;;;;;;;;;;;;;;;;5082504;28;19916;-62
2023/05/28 00:05:10;;;;;;;;;;;;;;;;;;5075059;28;19927;-64
2023/05/28 00:07:36;;;;;;;;;;;;;;;;;;5074471;28;19920;-63
2023/05/28 00:10:01;;;;;;;;;;;;;;;;;;5076207;28;19935;-63
2023/05/28 00:12:28;;;;;;;;;;;;;;;;;;5073951;28;19916;-64
2023/05/28 00:14:53;;;;;;;;;;;;;;;;;;5094999;28;20321;-63
2023/05/28 00:17:19;;;;;;;;;;;;;;;;;;5092804;28;19916;-64
2023/05/28 00:19:44;;;;;;;;;;;;;;;;;;5090825;28;19920;-63
2023/05/28 00:22:09;;;;;;;;;;;;;;;;;;5094023;28;19969;-62
2023/05/28 00:24:35;;;;;;;;;;;;;;;;;;5098137;28;19920;-62
2023/05/28 00:27:00;;;;;;;;;;;;;;;;;;5106137;28;20418;-64
2023/05/28 00:29:26;;;;;;;;;;;;;;;;;;5099714;28;20022;-61
2023/05/28 00:31:54;;;;;;;;;;;;;;;;;;5101237;28;19920;-63
2023/05/28 00:34:20;;;;;;;;;;;;;;;;;;5097783;28;20395;-64
2023/05/28 00:36:45;;;;;;;;;;;;;;;;;;5107524;28;19919;-62
2023/05/28 00:39:10;;;;;;;;;;;;;;;;;;5078940;28;19924;-63
2023/05/28 00:41:36;;;;;;;;;;;;;;;;;;5090464;28;19927;-63
2023/05/28 00:44:02;;;;;;;;;;;;;;;;;;5087311;28;19923;-63
2023/05/28 00:46:28;;;;;;;;;;;;;;;;;;5070256;28;19920;-62
2023/05/28 00:48:53;;;;;;;;;;;;;;;;;;5076467;28;19930;-63
2023/05/28 00:51:18;;;;;;;;;;;;;;;;;;5091870;28;20027;-64
2023/05/28 00:53:44;;;;;;;;;;;;;;;;;;5091824;28;19916;-63
2023/05/28 00:56:10;;;;;;;;;;;;;;;;;;5091542;28;19981;-62
2023/05/28 00:58:35;;;;;;;;;;;;;;;;;;5090392;28;20007;-62
2023/05/28 01:01:01;;;;;;;;;;;;;;;;;;5085404;28;19956;-62
2023/05/28 01:03:26;;;;;;;;;;;;;;;;;;5071687;28;19916;-62
2023/05/28 01:05:52;;;;;;;;;;;;;;;;;;5053113;28;20381;-63
2023/05/28 01:08:17;;;;;;;;;;;;;;;;;;5071277;28;19970;-63
2023/05/28 01:10:42;;;;;;;;;;;;;;;;;;5069629;28;19950;-62
2023/05/28 01:13:08;;;;;;;;;;;;;;;;;;5069815;28;19916;-63
2023/05/28 01:15:33;;;;;;;;;;;;;;;;;;5069822;28;19920;-64
2023/05/28 01:17:59;;;;;;;;;;;;;;;;;;5069930;28;20301;-64
2023/05/28 01:20:25;;;;;;;;;;;;;;;;;;5069807;28;19962;-63
2023/05/28 01:22:50;;;;;;;;;;;;;;;;;;5069921;28;20410;-63
2023/05/28 01:25:16;;;;;;;;;;;;;;;;;;5071165;28;20442;-64
2023/05/28 01:27:41;;;;;;;;;;;;;;;;;;5069826;28;19923;-63
2023/05/28 01:30:09;;;;;;;;;;;;;;;;;;5069651;28;20432;-63
2023/05/28 01:32:35;;;;;;;;;;;;;;;;;;5075957;28;19916;-63
2023/05/28 01:35:00;;;;;;;;;;;;;;;;;;5093330;28;19942;-63
2023/05/28 01:37:26;;;;;;;;;;;;;;;;;;5072660;28;19960;-63
2023/05/28 01:39:52;;;;;;;;;;;;;;;;;;5072741;28;19989;-63
2023/05/28 01:42:17;;;;;;;;;;;;;;;;;;5074218;28;19916;-63
2023/05/28 01:44:43;;;;;;;;;;;;;;;;;;5083050;28;19916;-62
2023/05/28 01:47:09;;;;;;;;;;;;;;;;;;5063299;28;19931;-63
2023/05/28 01:49:34;;;;;;;;;;;;;;;;;;5076470;28;19924;-62
2023/05/28 01:51:59;;;;;;;;;;;;;;;;;;5083753;28;19928;-63
2023/05/28 01:54:25;;;;;;;;;;;;;;;;;;5073291;28;19923;-63
2023/05/28 01:56:50;;;;;;;;;;;;;;;;;;5074259;28;19921;-62
2023/05/28 01:59:16;;;;;;;;;;;;;;;;;;5056506;28;20472;-62
2023/05/28 02:01:41;;;;;;;;;;;;;;;;;;5072896;28;19920;-62
2023/05/28 02:04:08;;;;;;;;;;;;;;;;;;5082296;28;20040;-62
2023/05/28 02:06:35;;;;;;;;;;;;;;;;;;5104849;28;20435;-63
2023/05/28 02:09:01;;;;;;;;;;;;;;;;;;5114915;28;20026;-64
2023/05/28 02:11:26;;;;;;;;;;;;;;;;;;5114601;28;19979;-62
2023/05/28 02:13:54;;;;;;;;;;;;;;;;;;5113468;28;19916;-62
2023/05/28 02:16:20;;;;;;;;;;;;;;;;;;5113299;28;19931;-63
2023/05/28 02:18:46;;;;;;;;;;;;;;;;;;5113339;28;19960;-62
2023/05/28 02:21:11;;;;;;;;;;;;;;;;;;5113115;28;19919;-62
2023/05/28 02:23:36;;;;;;;;;;;;;;;;;;5113174;28;19957;-62
2023/05/28 02:26:02;;;;;;;;;;;;;;;;;;5112974;28;20375;-62
2023/05/28 02:28:27;;;;;;;;;;;;;;;;;;5112660;28;20468;-63
2023/05/28 02:30:53;;;;;;;;;;;;;;;;;;5106572;28;19920;-62
2023/05/28 02:33:18;;;;;;;;;;;;;;;;;;5092665;28;19926;-64
2023/05/28 02:35:44;;;;;;;;;;;;;;;;;;5092461;28;20301;-62
2023/05/28 02:38:10;;;;;;;;;;;;;;;;;;5092590;28;19916;-63
2023/05/28 02:40:35;;;;;;;;;;;;;;;;;;5083190;28;19928;-62
2023/05/28 02:43:01;;;;;;;;;;;;;;;;;;5071410;28;19921;-63
2023/05/28 02:45:26;;;;;;;;;;;;;;;;;;5071994;28;19925;-61
2023/05/28 02:47:51;;;;;;;;;;;;;;;;;;5072075;28;20006;-62
2023/05/28 02:50:20;;;;;;;;;;;;;;;;;;5071798;28;19936;-62
2023/05/28 02:53:05;;;;;;;;;;;;;;;;;;5071980;28;19956;-63
2023/05/28 02:55:30;;;;;;;;;;;;;;;;;;5071640;28;20364;-63
2023/05/28 02:57:56;;;;;;;;;;;;;;;;;;5073188;28;20465;-62
2023/05/28 03:00:21;;;;;;;;;;;;;;;;;;5078815;28;19920;-62
2023/05/28 03:02:47;;;;;;;;;;;;;;;;;;5087848;28;19920;-63
2023/05/28 03:05:12;;;;;;;;;;;;;;;;;;5066874;28;19928;-62
2023/05/28 03:07:38;;;;;;;;;;;;;;;;;;5071788;28;19917;-62
2023/05/28 03:10:03;;;;;;;;;;;;;;;;;;5082570;28;19928;-63
2023/05/28 03:12:29;;;;;;;;;;;;;;;;;;5072753;28;20431;-62
2023/05/28 03:14:54;;;;;;;;;;;;;;;;;;5071354;28;19921;-62
2023/05/28 03:17:20;;;;;;;;;;;;;;;;;;5088314;28;20034;-61
2023/05/28 03:19:46;;;;;;;;;;;;;;;;;;5088184;28;20393;-62
2023/05/28 03:22:13;;;;;;;;;;;;;;;;;;5091431;28;19922;-63
2023/05/28 03:24:41;;;;;;;;;;;;;;;;;;5091719;28;20300;-63
2023/05/28 03:27:10;;;;;;;;;;;;;;;;;;5058797;28;19973;-65
2023/05/28 03:29:36;;;;;;;;;;;;;;;;;;5091602;28;20393;-64
2023/05/28 03:32:15;;;;;;;;;;;;;;;;;;5091235;28;20385;-65
2023/05/28 03:34:41;;;;;;;;;;;;;;;;;;5105732;28;19960;-64
2023/05/28 03:37:06;;;;;;;;;;;;;;;;;;5112974;28;20408;-64
2023/05/28 03:39:31;;;;;;;;;;;;;;;;;;5111684;28;19923;-64
2023/05/28 03:41:57;;;;;;;;;;;;;;;;;;5111418;28;19923;-64
2023/05/28 03:44:25;;;;;;;;;;;;;;;;;;5111791;28;20015;-63
2023/05/28 03:46:50;;;;;;;;;;;;;;;;;;5112992;28;20366;-62
2023/05/28 03:49:15;;;;;;;;;;;;;;;;;;5094579;28;19927;-62
2023/05/28 03:51:41;;;;;;;;;;;;;;;;;;5111311;28;19943;-63
2023/05/28 03:54:06;;;;;;;;;;;;;;;;;;5110812;28;19916;-63
2023/05/28 03:56:33;;;;;;;;;;;;;;;;;;5092512;28;20024;-62
2023/05/28 03:58:59;;;;;;;;;;;;;;;;;;5091014;28;19924;-64
2023/05/28 04:01:24;;;;;;;;;;;;;;;;;;5073924;28;19924;-63
2023/05/28 04:03:50;;;;;;;;;;;;;;;;;;5090831;28;19923;-63
2023/05/28 04:06:16;;;;;;;;;;;;;;;;;;5092398;28;20296;-64
2023/05/28 04:08:42;;;;;;;;;;;;;;;;;;5092173;28;19931;-63
2023/05/28 04:11:07;;;;;;;;;;;;;;;;;;5060794;28;19923;-64
2023/05/28 04:13:33;;;;;;;;;;;;;;;;;;5078135;28;19916;-63
2023/05/28 04:15:58;;;;;;;;;;;;;;;;;;5080058;28;20003;-63
2023/05/28 04:18:24;;;;;;;;;;;;;;;;;;5077596;28;20012;-63
2023/05/28 04:20:49;;;;;;;;;;;;;;;;;;5073562;28;20018;-64
2023/05/28 04:23:15;;;;;;;;;;;;;;;;;;5090460;28;19923;-64
2023/05/28 04:25:42;;;;;;;;;;;;;;;;;;5085255;28;19974;-64
2023/05/28 04:28:07;;;;;;;;;;;;;;;;;;5088787;28;19965;-64
2023/05/28 04:30:33;;;;;;;;;;;;;;;;;;5087306;28;20080;-63
2023/05/28 04:32:58;;;;;;;;;;;;;;;;;;5069716;28;20305;-63
2023/05/28 04:35:24;;;;;;;;;;;;;;;;;;5069354;28;19920;-63
2023/05/28 04:37:51;;;;;;;;;;;;;;;;;;5078884;28;19920;-64
2023/05/28 04:40:16;;;;;;;;;;;;;;;;;;5092126;28;19928;-64
2023/05/28 04:42:42;;;;;;;;;;;;;;;;;;5081721;28;20056;-64
2023/05/28 04:45:09;;;;;;;;;;;;;;;;;;5079213;28;19943;-64
2023/05/28 04:47:35;;;;;;;;;;;;;;;;;;5072118;28;19922;-64
2023/05/28 04:50:00;;;;;;;;;;;;;;;;;;5073096;28;19928;-63
2023/05/28 04:52:26;;;;;;;;;;;;;;;;;;5092036;28;20406;-64
2023/05/28 04:54:51;;;;;;;;;;;;;;;;;;5091330;28;19920;-66
2023/05/28 04:57:17;;;;;;;;;;;;;;;;;;5044257;28;20370;-63
2023/05/28 04:59:44;;;;;;;;;;;;;;;;;;5088341;28;19926;-65
2023/05/28 05:02:10;;;;;;;;;;;;;;;;;;5081220;28;20356;-64
2023/05/28 05:04:35;;;;;;;;;;;;;;;;;;5095651;28;20018;-63
2023/05/28 05:07:01;;;;;;;;;;;;;;;;;;5078400;28;20400;-63
2023/05/28 05:09:27;;;;;;;;;;;;;;;;;;5098315;28;19959;-63
2023/05/28 05:11:52;;;;;;;;;;;;;;;;;;5061516;28;20381;-63
2023/05/28 05:14:17;;;;;;;;;;;;;;;;;;5078098;28;19938;-63
2023/05/28 05:16:43;;;;;;;;;;;;;;;;;;5093446;28;20328;-63
2023/05/28 05:19:09;;;;;;;;;;;;;;;;;;5095524;28;20349;-63
2023/05/28 05:21:35;;;;;;;;;;;;;;;;;;5106950;28;19962;-64
2023/05/28 05:24:01;;;;;;;;;;;;;;;;;;5077392;28;20262;-64
2023/05/28 05:26:26;;;;;;;;;;;;;;;;;;5066303;28;19942;-63
2023/05/28 05:28:52;;;;;;;;;;;;;;;;;;5115600;28;19923;-63
2023/05/28 05:31:17;;;;;;;;;;;;;;;;;;5096891;28;19920;-63
2023/05/28 05:33:42;;;;;;;;;;;;;;;;;;5097043;28;19916;-64
2023/05/28 05:36:14;;;;;;;;;;;;;;;;;;5098328;28;19969;-63
2023/05/28 05:38:59;;;;;;;;;;;;;;;;;;5058479;28;20377;-63
2023/05/28 05:41:54;;;;;;;;;;;;;;;;;;5036597;28;20464;-63
2023/05/28 05:44:25;;;;;;;;;;;;;;;;;;5092544;28;20272;-63
2023/05/28 05:46:50;;;;;;;;;;;;;;;;;;5059079;28;19920;-64
2023/05/28 05:49:15;;;;;;;;;;;;;;;;;;5079546;28;19924;-63
2023/05/28 05:51:41;;;;;;;;;;;;;;;;;;5085570;28;19958;-62
2023/05/28 05:54:07;;;;;;;;;;;;;;;;;;5067024;28;19923;-62
2023/05/28 05:56:33;;;;;;;;;;;;;;;;;;5096644;28;20393;-63
2023/05/28 05:58:59;;;;;;;;;;;;;;;;;;5094688;28;20308;-66
2023/05/28 06:01:24;;;;;;;;;;;;;;;;;;5077793;28;20300;-64
2023/05/28 06:03:50;;;;;;;;;;;;;;;;;;5107131;28;19923;-63
2023/05/28 06:06:36;;;;;;;;;;;;;;;;;;5114398;28;19920;-64
2023/05/28 06:09:14;;;;;;;;;;;;;;;;;;5059584;28;19955;-64
2023/05/28 06:12:03;;;;;;;;;;;;;;;;;;5093805;28;19925;-64
2023/05/28 06:14:28;;;;;;;;;;;;;;;;;;5076936;28;20011;-64
2023/05/28 06:16:53;;;;;;;;;;;;;;;;;;5092692;28;19919;-63
2023/05/28 06:19:19;;;;;;;;;;;;;;;;;;5093291;28;19920;-65
2023/05/28 06:21:45;;;;;;;;;;;;;;;;;;5089622;28;19924;-63
2023/05/28 06:24:10;;;;;;;;;;;;;;;;;;5094040;28;20393;-63
2023/05/28 06:26:37;;;;;;;;;;;;;;;;;;5075870;28;19920;-64
2023/05/28 06:29:02;;;;;;;;;;;;;;;;;;5075900;28;20301;-63
2023/05/28 06:31:29;;;;;;;;;;;;;;;;;;5069934;28;19920;-64
2023/05/28 06:33:55;;;;;;;;;;;;;;;;;;5079023;28;19916;-62
2023/05/28 06:36:21;;;;;;;;;;;;;;;;;;5093785;28;19959;-64
2023/05/28 06:38:46;;;;;;;;;;;;;;;;;;5084303;28;19916;-63
2023/05/28 06:41:12;;;;;;;;;;;;;;;;;;5058421;28;19920;-63
2023/05/28 06:43:48;;;;;;;;;;;;;;;;;;5076202;28;19922;-62
2023/05/28 06:46:37;;;;;;;;;;;;;;;;;;5092689;28;19965;-63
2023/05/28 06:49:02;;;;;;;;;;;;;;;;;;5086433;28;19928;-63
2023/05/28 06:51:27;;;;;;;;;;;;;;;;;;5093151;28;19920;-63
2023/05/28 06:53:53;;;;;;;;;;;;;;;;;;5086884;28;20373;-62
2023/05/28 06:56:23;;;;;;;;;;;;;;;;;;5062345;28;19920;-64
2023/05/28 06:59:23;;;;;;;;;;;;;;;;;;5005184;28;19918;-63
2023/05/28 07:02:07;;;;;;;;;;;;;;;;;;5094328;28;19919;-62
2023/05/28 07:04:48;;;;;;;;;;;;;;;;;;5090090;27;20389;-63
2023/05/28 07:07:17;;;;;;;;;;;;;;;;;;5096102;28;19920;-63
2023/05/28 07:09:42;;;;;;;;;;;;;;;;;;5111709;28;20218;-64
2023/05/28 07:12:08;;;;;;;;;;;;;;;;;;5077048;28;19924;-63
2023/05/28 07:14:36;;;;;;;;;;;;;;;;;;5095247;28;19916;-62
2023/05/28 07:17:01;;;;;;;;;;;;;;;;;;5092956;28;20300;-63
2023/05/28 07:19:26;;;;;;;;;;;;;;;;;;5058256;28;19969;-63
2023/05/28 07:21:52;;;;;;;;;;;;;;;;;;5087180;28;19965;-62
2023/05/28 07:24:17;;;;;;;;;;;;;;;;;;5094984;28;19968;-65
2023/05/28 07:26:44;;;;;;;;;;;;;;;;;;5094665;28;20407;-61
2023/05/28 07:29:10;;;;;;;;;;;;;;;;;;5052173;28;20347;-62
2023/05/28 07:31:38;;;;;;;;;;;;;;;;;;5084335;28;19942;-62
2023/05/28 07:34:04;;;;;;;;;;;;;;;;;;5084403;28;19916;-64
2023/05/28 07:36:31;;;;;;;;;;;;;;;;;;5071593;28;19966;-64
2023/05/28 07:38:57;;;;;;;;;;;;;;;;;;5101830;28;19924;-62
2023/05/28 07:41:22;;;;;;;;;;;;;;;;;;5072828;28;19924;-63
2023/05/28 07:43:55;;;;;;;;;;;;;;;;;;5078796;28;19922;-63
2023/05/28 07:46:25;;;;;;;;;;;;;;;;;;5069047;28;20304;-60
2023/05/28 07:49:02;;;;;;;;;;;;;;;;;;5090275;28;19931;-61
2023/05/28 07:51:32;;;;;;;;;;;;;;;;;;5059152;27;20423;-63
2023/05/28 07:54:18;;;;;;;;;;;;;;;;;;5111555;28;20352;-64
2023/05/28 07:56:44;;;;;;;;;;;;;;;;;;5093839;28;19951;-61
2023/05/28 07:59:17;;;;;;;;;;;;;;;;;;5076427;28;19916;-63
2023/05/28 08:01:44;;;;;;;;;;;;;;;;;;5076206;28;19920;-64
2023/05/28 08:04:09;;;;;;;;;;;;;;;;;;5092996;28;19926;-63
2023/05/28 08:06:37;;;;;;;;;;;;;;;;;;5085043;28;19920;-63
2023/05/28 08:09:05;;;;;;;;;;;;;;;;;;5081004;28;19927;-64
2023/05/28 08:11:30;;;;;;;;;;;;;;;;;;5092805;28;20060;-64
2023/05/28 08:13:56;;;;;;;;;;;;;;;;;;5092001;28;19920;-64
2023/05/28 08:16:22;;;;;;;;;;;;;;;;;;5069552;28;19960;-63
2023/05/28 08:19:05;;;;;;;;;;;;;;;;;;5084970;28;19922;-65
2023/05/28 08:21:31;;;;;;;;;;;;;;;;;;5088520;28;19920;-62
2023/05/28 08:23:57;;;;;;;;;;;;;;;;;;5073222;28;19962;-63
2023/05/28 08:26:22;;;;;;;;;;;;;;;;;;5072053;28;19923;-63
2023/05/28 08:28:48;;;;;;;;;;;;;;;;;;5071356;28;19931;-63
2023/05/28 08:31:13;;;;;;;;;;;;;;;;;;5098805;28;19926;-61
2023/05/28 08:34:14;;;;;;;;;;;;;;;;;;5027646;28;19917;-62
2023/05/28 08:36:41;;;;;;;;;;;;;;;;;;5075969;28;19973;-62
2023/05/28 08:39:12;;;;;;;;;;;;;;;;;;5061125;28;19931;-64
2023/05/28 08:41:40;;;;;;;;;;;;;;;;;;5088882;28;20050;-63
2023/05/28 08:44:05;;;;;;;;;;;;;;;;;;5078443;28;20479;-61
2023/05/28 08:46:30;;;;;;;;;;;;;;;;;;5075836;28;20031;-61
2023/05/28 08:49:16;;;;;;;;;;;;;;;;;;5061250;28;20190;-62
2023/05/28 08:51:42;;;;;;;;;;;;;;;;;;5075630;28;19920;-62
2023/05/28 08:54:08;;;;;;;;;;;;;;;;;;5078641;28;19916;-63
2023/05/28 08:56:33;;;;;;;;;;;;;;;;;;5079040;28;19919;-62
2023/05/28 08:58:59;;;;;;;;;;;;;;;;;;5097400;28;20287;-62
2023/05/28 09:01:24;;;;;;;;;;;;;;;;;;5080312;28;19973;-62
2023/05/28 09:04:04;;;;;;;;;;;;;;;;;;5080348;28;19922;-61
2023/05/28 09:06:35;;;;;;;;;;;;;;;;;;5080451;28;20026;-64
2023/05/28 09:09:00;;;;;;;;;;;;;;;;;;5097083;28;20504;-62
2023/05/28 09:11:38;;;;;;;;;;;;;;;;;;5088080;28;19927;-65
2023/05/28 09:14:03;;;;;;;;;;;;;;;;;;5076844;28;19916;-65
2023/05/28 09:16:28;;;;;;;;;;;;;;;;;;5099982;28;19919;-65
2023/05/28 09:19:04;;;;;;;;;;;;;;;;;;5070999;28;19923;-66
2023/05/28 09:21:31;;;;;;;;;;;;;;;;;;5094314;28;19920;-66
2023/05/28 09:23:58;;;;;;;;;;;;;;;;;;5077136;28;20014;-63
2023/05/28 09:26:30;;;;;;;;;;;;;;;;;;5097676;28;20365;-62
2023/05/28 09:29:00;;;;;;;;;;;;;;;;;;5079983;28;19928;-63
2023/05/28 09:31:25;;;;;;;;;;;;;;;;;;5071734;28;20014;-61
2023/05/28 09:33:51;;;;;;;;;;;;;;;;;;5095296;28;20361;-63
2023/05/28 09:36:16;;;;;;;;;;;;;;;;;;5061440;28;20019;-63
2023/05/28 09:38:42;;;;;;;;;;;;;;;;;;5115102;28;19923;-62
2023/05/28 09:41:09;;;;;;;;;;;;;;;;;;5112950;28;19931;-64
2023/05/28 09:43:35;;;;;;;;;;;;;;;;;;5113935;28;20025;-62
2023/05/28 09:46:00;;;;;;;;;;;;;;;;;;5095409;28;20018;-62
2023/05/28 09:48:26;;;;;;;;;;;;;;;;;;5066273;28;20137;-63
2023/05/28 09:50:51;;;;;;;;;;;;;;;;;;5106160;28;20319;-63
2023/05/28 09:53:17;;;;;;;;;;;;;;;;;;5112678;28;19920;-64
2023/05/28 09:55:42;;;;;;;;;;;;;;;;;;5113425;28;19920;-64
2023/05/28 09:58:08;;;;;;;;;;;;;;;;;;5111844;28;19915;-63
2023/05/28 10:00:33;;;;;;;;;;;;;;;;;;5113717;28;20346;-62
2023/05/28 10:02:59;;;;;;;;;;;;;;;;;;5084588;28;19919;-61
2023/05/28 10:05:24;;;;;;;;;;;;;;;;;;5094936;28;19947;-63
2023/05/28 10:07:49;;;;;;;;;;;;;;;;;;5077564;28;19920;-62
2023/05/28 10:10:15;;;;;;;;;;;;;;;;;;5094840;28;20063;-61
2023/05/28 10:12:40;;;;;;;;;;;;;;;;;;5103941;28;19923;-62
2023/05/28 10:15:05;;;;;;;;;;;;;;;;;;5114116;28;19920;-61
2023/05/28 10:17:30;;;;;;;;;;;;;;;;;;5114310;28;19916;-61
2023/05/28 10:19:56;;;;;;;;;;;;;;;;;;5096369;28;19927;-63
2023/05/28 10:22:21;;;;;;;;;;;;;;;;;;5111841;28;19915;-63
2023/05/28 10:24:47;;;;;;;;;;;;;;;;;;5112174;28;19920;-63
2023/05/28 10:27:12;;;;;;;;;;;;;;;;;;5083565;28;19923;-63
2023/05/28 10:29:37;;;;;;;;;;;;;;;;;;5113259;27;19924;-61
2023/05/28 10:32:02;;;;;;;;;;;;;;;;;;5134247;27;19922;-63
2023/05/28 10:34:28;;;;;;;;;;;;;;;;;;5134939;27;19963;-61
2023/05/28 10:36:53;;;;;;;;;;;;;;;;;;5117777;27;20003;-62
2023/05/28 10:39:18;;;;;;;;;;;;;;;;;;5075263;28;20019;-62
2023/05/28 10:41:44;;;;;;;;;;;;;;;;;;5113045;28;20426;-62
2023/05/28 10:44:10;;;;;;;;;;;;;;;;;;5093487;28;19924;-63
2023/05/28 10:46:36;;;;;;;;;;;;;;;;;;5078616;28;20396;-62
2023/05/28 10:49:01;;;;;;;;;;;;;;;;;;5113662;28;19930;-63
2023/05/28 10:51:26;;;;;;;;;;;;;;;;;;5113462;28;19920;-63
2023/05/28 10:53:51;;;;;;;;;;;;;;;;;;5108634;28;20426;-61
2023/05/28 10:56:17;;;;;;;;;;;;;;;;;;5095063;28;19920;-61
2023/05/28 10:58:42;;;;;;;;;;;;;;;;;;5096398;28;19916;-62
2023/05/28 11:01:07;;;;;;;;;;;;;;;;;;5112947;28;19926;-61
2023/05/28 11:03:33;;;;;;;;;;;;;;;;;;5112706;28;19915;-62
2023/05/28 11:05:58;;;;;;;;;;;;;;;;;;5113164;28;19920;-61
2023/05/28 11:08:23;;;;;;;;;;;;;;;;;;5094661;28;19923;-62
2023/05/28 11:10:48;;;;;;;;;;;;;;;;;;5112394;27;20279;-60
2023/05/28 11:13:14;;;;;;;;;;;;;;;;;;5110876;28;20280;-62
2023/05/28 11:15:39;;;;;;;;;;;;;;;;;;5082446;28;19920;-61
2023/05/28 11:18:05;;;;;;;;;;;;;;;;;;5092431;28;19920;-61
2023/05/28 11:20:30;;;;;;;;;;;;;;;;;;5092864;28;20298;-62
2023/05/28 11:22:56;;;;;;;;;;;;;;;;;;5092524;28;19924;-62
2023/05/28 11:25:22;;;;;;;;;;;;;;;;;;5073874;28;19920;-61
2023/05/28 11:27:47;;;;;;;;;;;;;;;;;;5092275;28;19919;-61
2023/05/28 11:30:12;;;;;;;;;;;;;;;;;;5091815;28;20000;-62
2023/05/28 11:32:38;;;;;;;;;;;;;;;;;;5074611;28;19916;-62
2023/05/28 11:35:04;;;;;;;;;;;;;;;;;;5096436;28;20014;-62
2023/05/28 11:37:29;;;;;;;;;;;;;;;;;;5109881;28;19916;-61
2023/05/28 11:39:54;;;;;;;;;;;;;;;;;;5104057;28;19976;-60
2023/05/28 11:42:20;;;;;;;;;;;;;;;;;;5073727;28;20296;-63
2023/05/28 11:44:45;;;;;;;;;;;;;;;;;;5101060;28;19927;-61
2023/05/28 11:47:11;;;;;;;;;;;;;;;;;;5112600;28;20292;-62
2023/05/28 11:49:36;;;;;;;;;;;;;;;;;;5112155;28;19931;-63
2023/05/28 11:52:01;;;;;;;;;;;;;;;;;;5112553;28;20418;-62
2023/05/28 11:54:27;;;;;;;;;;;;;;;;;;5079692;28;20006;-62
2023/05/28 11:56:52;;;;;;;;;;;;;;;;;;5111649;28;19926;-62
2023/05/28 11:59:18;;;;;;;;;;;;;;;;;;5088692;28;20338;-61
2023/05/28 12:01:43;;;;;;;;;;;;;;;;;;5094723;28;20392;-61
2023/05/28 12:04:09;;;;;;;;;;;;;;;;;;5091025;28;19966;-61
2023/05/28 12:06:35;;;;;;;;;;;;;;;;;;5071643;28;19920;-62
2023/05/28 12:09:01;;;;;;;;;;;;;;;;;;5105367;28;19923;-61
2023/05/28 12:11:26;;;;;;;;;;;;;;;;;;5109052;28;19927;-62
2023/05/28 12:13:51;;;;;;;;;;;;;;;;;;5053959;28;19916;-60
2023/05/28 12:16:17;;;;;;;;;;;;;;;;;;5101026;28;20393;-61
2023/05/28 12:18:42;;;;;;;;;;;;;;;;;;5076246;28;20319;-61
2023/05/28 12:21:07;;;;;;;;;;;;;;;;;;5055640;28;19955;-60
2023/05/28 12:23:33;;;;;;;;;;;;;;;;;;5091654;28;20499;-60
2023/05/28 12:25:58;;;;;;;;;;;;;;;;;;5082567;28;19920;-61
2023/05/28 12:28:23;;;;;;;;;;;;;;;;;;5054793;28;19916;-60
2023/05/28 12:30:52;;;;;;;;;;;;;;;;;;5105478;28;19924;-61
2023/05/28 12:33:18;;;;;;;;;;;;;;;;;;5075700;28;19912;-62
2023/05/28 12:35:43;;;;;;;;;;;;;;;;;;5096195;28;19924;-61
2023/05/28 12:38:08;;;;;;;;;;;;;;;;;;5064074;28;19922;-62
2023/05/28 12:40:34;;;;;;;;;;;;;;;;;;5077438;28;20014;-63
2023/05/28 12:42:59;;;;;;;;;;;;;;;;;;5066836;28;19962;-62
2023/05/28 12:45:24;;;;;;;;;;;;;;;;;;5069333;28;19959;-60
2023/05/28 12:47:50;;;;;;;;;;;;;;;;;;5080486;28;20408;-60
2023/05/28 12:50:15;;;;;;;;;;;;;;;;;;5066831;28;19928;-63
2023/05/28 12:52:40;;;;;;;;;;;;;;;;;;5083285;28;19923;-63
2023/05/28 12:55:06;;;;;;;;;;;;;;;;;;5082592;28;19928;-62
2023/05/28 12:57:32;;;;;;;;;;;;;;;;;;5071991;28;19923;-61
2023/05/28 12:59:57;;;;;;;;;;;;;;;;;;5085106;28;19924;-63
2023/05/28 13:02:22;;;;;;;;;;;;;;;;;;5083655;28;20019;-61
2023/05/28 13:04:48;;;;;;;;;;;;;;;;;;5069028;28;19920;-62
2023/05/28 13:07:13;;;;;;;;;;;;;;;;;;5077378;28;20380;-62
2023/05/28 13:09:38;;;;;;;;;;;;;;;;;;5073069;28;19928;-62
2023/05/28 13:12:03;;;;;;;;;;;;;;;;;;5053448;28;19921;-62
2023/05/28 13:14:35;;;;;;;;;;;;;;;;;;5070308;28;19928;-59
2023/05/28 13:17:20;;;;;;;;;;;;;;;;;;5085133;28;19928;-62
2023/05/28 13:19:45;;;;;;;;;;;;;;;;;;5076639;28;19920;-62
2023/05/28 13:22:12;;;;;;;;;;;;;;;;;;5078706;28;19986;-61
2023/05/28 13:24:38;;;;;;;;;;;;;;;;;;5079786;28;19923;-61
2023/05/28 13:27:03;;;;;;;;;;;;;;;;;;4987121;28;20508;-61
2023/05/28 13:29:28;;;;;;;;;;;;;;;;;;4894735;28;20273;-61
2023/05/28 13:31:54;;;;;;;;;;;;;;;;;;4896459;28;21054;-61
2023/05/28 13:34:19;;;;;;;;;;;;;;;;;;4909240;28;20220;-62
2023/05/28 13:36:44;;;;;;;;;;;;;;;;;;4890396;28;19970;-60
2023/05/28 13:39:10;;;;;;;;;;;;;;;;;;4909984;27;20180;-61
2023/05/28 13:41:35;;;;;;;;;;;;;;;;;;5033138;27;19919;-60
2023/05/28 13:44:01;;;;;;;;;;;;;;;;;;5093251;28;19922;-63
2023/05/28 13:46:26;;;;;;;;;;;;;;;;;;5093909;28;19920;-63
2023/05/28 13:48:51;;;;;;;;;;;;;;;;;;5071137;28;20026;-60
2023/05/28 13:51:17;;;;;;;;;;;;;;;;;;5051966;28;20380;-61
2023/05/28 13:53:45;;;;;;;;;;;;;;;;;;5100449;28;19922;-62
2023/05/28 13:56:10;;;;;;;;;;;;;;;;;;5106735;28;20122;-61
2023/05/28 13:58:36;;;;;;;;;;;;;;;;;;5089510;28;19923;-61
2023/05/28 14:01:01;;;;;;;;;;;;;;;;;;5094765;28;20001;-63
2023/05/28 14:03:26;;;;;;;;;;;;;;;;;;5110197;28;20487;-62
2023/05/28 14:05:52;;;;;;;;;;;;;;;;;;5108302;28;19920;-61
2023/05/28 14:08:17;;;;;;;;;;;;;;;;;;5093778;28;19966;-63
2023/05/28 14:10:42;;;;;;;;;;;;;;;;;;5090541;28;19934;-62
2023/05/28 14:13:08;;;;;;;;;;;;;;;;;;5073878;28;19965;-62
2023/05/28 14:15:33;;;;;;;;;;;;;;;;;;5100076;28;19916;-63
2023/05/28 14:17:58;;;;;;;;;;;;;;;;;;5090156;28;19960;-61
2023/05/28 14:20:24;;;;;;;;;;;;;;;;;;5099573;28;19986;-62
2023/05/28 14:22:49;;;;;;;;;;;;;;;;;;5103071;28;19920;-61
2023/05/28 14:25:15;;;;;;;;;;;;;;;;;;5068358;28;20310;-62
2023/05/28 14:27:40;;;;;;;;;;;;;;;;;;5087072;28;19916;-62
2023/05/28 14:30:06;;;;;;;;;;;;;;;;;;5097727;28;19947;-61
2023/05/28 14:32:31;;;;;;;;;;;;;;;;;;5087247;28;20469;-62
2023/05/28 14:34:56;;;;;;;;;;;;;;;;;;5107291;28;19919;-62
2023/05/28 14:37:22;;;;;;;;;;;;;;;;;;5094940;28;19923;-62
2023/05/28 14:39:47;;;;;;;;;;;;;;;;;;5074940;28;19975;-62
2023/05/28 14:42:12;;;;;;;;;;;;;;;;;;5088452;28;20060;-63
2023/05/28 14:44:38;;;;;;;;;;;;;;;;;;5109062;28;19915;-61
2023/05/28 14:47:03;;;;;;;;;;;;;;;;;;5109998;28;19972;-60
2023/05/28 14:49:28;;;;;;;;;;;;;;;;;;5109547;28;19930;-61
2023/05/28 14:51:54;;;;;;;;;;;;;;;;;;5109497;28;19926;-62
2023/05/28 14:54:19;;;;;;;;;;;;;;;;;;5074370;28;20292;-62
2023/05/28 14:56:45;;;;;;;;;;;;;;;;;;5108069;28;19919;-61
2023/05/28 14:59:10;;;;;;;;;;;;;;;;;;5089096;28;19916;-61
2023/05/28 15:01:35;;;;;;;;;;;;;;;;;;5107661;28;19920;-61
2023/05/28 15:04:01;;;;;;;;;;;;;;;;;;5096719;28;19923;-62
2023/05/28 15:06:26;;;;;;;;;;;;;;;;;;5069442;28;20015;-60
2023/05/28 15:08:51;;;;;;;;;;;;;;;;;;5088194;28;19959;-61
2023/05/28 15:11:17;;;;;;;;;;;;;;;;;;5089378;28;20304;-61
2023/05/28 15:13:42;;;;;;;;;;;;;;;;;;5088083;28;19947;-61
2023/05/28 15:16:07;;;;;;;;;;;;;;;;;;5093537;28;20180;-61
2023/05/28 15:18:33;;;;;;;;;;;;;;;;;;5089838;28;20394;-61
2023/05/28 15:20:58;;;;;;;;;;;;;;;;;;5106562;28;20597;-60
2023/05/28 15:23:23;;;;;;;;;;;;;;;;;;5093612;28;19939;-64
2023/05/28 15:25:48;;;;;;;;;;;;;;;;;;5075206;28;20510;-61
2023/05/28 15:28:14;;;;;;;;;;;;;;;;;;5070976;28;19919;-62
2023/05/28 15:30:39;;;;;;;;;;;;;;;;;;5092630;27;20014;-62
2023/05/28 15:33:05;;;;;;;;;;;;;;;;;;5102582;28;19954;-62
2023/05/28 15:35:31;;;;;;;;;;;;;;;;;;5085248;28;19919;-62
2023/05/28 15:37:58;;;;;;;;;;;;;;;;;;5103295;28;22396;-62
2023/05/28 15:40:24;;;;;;;;;;;;;;;;;;5103883;28;20364;-61
2023/05/28 15:42:49;;;;;;;;;;;;;;;;;;5107531;28;20412;-60
2023/05/28 15:45:14;;;;;;;;;;;;;;;;;;5106347;28;19919;-62
2023/05/28 15:47:40;;;;;;;;;;;;;;;;;;5088287;28;20031;-62
2023/05/28 15:50:05;;;;;;;;;;;;;;;;;;5092193;28;20303;-62
2023/05/28 15:52:31;;;;;;;;;;;;;;;;;;5098691;28;20406;-62
2023/05/28 15:54:56;;;;;;;;;;;;;;;;;;5079871;28;19968;-62
2023/05/28 15:57:22;;;;;;;;;;;;;;;;;;5105687;28;19961;-64
2023/05/28 15:59:47;;;;;;;;;;;;;;;;;;5084749;28;20021;-62
2023/05/28 16:02:12;;;;;;;;;;;;;;;;;;5111061;28;19915;-62
2023/05/28 16:04:38;;;;;;;;;;;;;;;;;;5100174;28;19920;-62
2023/05/28 16:07:03;;;;;;;;;;;;;;;;;;5099335;28;19916;-61
2023/05/28 16:09:31;;;;;;;;;;;;;;;;;;5067219;28;19927;-62
2023/05/28 16:11:56;;;;;;;;;;;;;;;;;;5111626;28;19916;-61
2023/05/28 16:14:21;;;;;;;;;;;;;;;;;;5094751;27;20346;-63
2023/05/28 16:16:47;;;;;;;;;;;;;;;;;;5090918;28;19916;-62
2023/05/28 16:19:12;;;;;;;;;;;;;;;;;;5072062;28;20548;-61
2023/05/28 16:21:39;;;;;;;;;;;;;;;;;;5090492;28;19916;-63
2023/05/28 16:24:04;;;;;;;;;;;;;;;;;;5085114;28;19920;-62
2023/05/28 16:26:30;;;;;;;;;;;;;;;;;;5104639;28;20284;-60
2023/05/28 16:28:55;;;;;;;;;;;;;;;;;;5106727;28;20389;-62
2023/05/28 16:31:23;;;;;;;;;;;;;;;;;;5108386;28;19916;-61
2023/05/28 16:33:56;;;;;;;;;;;;;;;;;;5048460;28;19920;-62
2023/05/28 16:39:24;;;;;;;;;;;;;;;;;;5086615;28;20346;-61
2023/05/28 16:41:50;;;;;;;;;;;;;;;;;;5086371;28;19920;-62
2023/05/28 16:44:15;;;;;;;;;;;;;;;;;;5087670;28;19920;-61